createdAt,value
2022-08-22T00:00:38.924Z,101078.75
2022-08-22T00:02:41.978Z,101067.66
2022-08-22T00:05:31.647Z,101088.47
2022-08-22T00:07:47.519Z,101076.06
2022-08-22T00:10:02.549Z,101085.78
2022-08-22T00:12:15.945Z,101077.94
2022-08-22T00:14:28.752Z,101087.75
2022-08-22T00:16:37.688Z,101083.41
2022-08-22T00:18:46.701Z,101085.13
2022-08-22T00:20:56.305Z,101087.84
2022-08-22T00:23:05.875Z,101084.34
2022-08-22T00:25:40.199Z,101081.94
2022-08-22T00:27:52.988Z,101084.78
2022-08-22T00:30:08.671Z,101085.78
2022-08-22T00:32:18.610Z,101085.75
2022-08-22T00:34:39.995Z,101086.72
2022-08-22T00:36:49.020Z,101090.19
2022-08-22T00:38:59.283Z,101085.91
2022-08-22T00:41:08.678Z,101074.34
2022-08-22T00:43:31.213Z,101082.22
2022-08-22T00:45:49.181Z,101091.09
2022-08-22T00:48:14.638Z,101088.44
2022-08-22T00:50:46.310Z,101092.00
2022-08-22T00:53:04.384Z,101092.91
2022-08-22T00:55:22.849Z,101089.34
2022-08-22T00:57:48.090Z,101099.91
2022-08-22T01:00:08.688Z,101101.75
2022-08-22T01:02:26.283Z,101107.88
2022-08-22T01:04:48.339Z,101098.19
2022-08-22T01:07:05.200Z,101099.94
2022-08-22T01:09:27.973Z,101089.28
2022-08-22T01:11:54.235Z,101092.88
2022-08-22T01:14:16.453Z,101073.59
2022-08-22T01:16:34.248Z,101092.88
2022-08-22T01:18:57.339Z,101090.31
2022-08-22T01:21:55.887Z,101092.94
2022-08-22T01:24:33.990Z,101084.97
2022-08-22T01:27:08.299Z,101090.22
2022-08-22T01:29:45.205Z,101100.06
2022-08-22T01:32:38.945Z,101088.69
2022-08-22T01:35:04.920Z,101080.94
2022-08-22T01:37:23.729Z,101082.75
2022-08-22T01:39:50.097Z,101085.41
2022-08-22T01:42:21.102Z,101082.72
2022-08-22T01:44:41.672Z,101080.09
2022-08-22T01:46:55.705Z,101078.31
2022-08-22T01:49:09.568Z,101064.16
2022-08-22T01:51:22.177Z,101078.25
2022-08-22T01:53:33.006Z,101070.44
2022-08-22T01:55:41.173Z,101069.69
2022-08-22T01:57:57.124Z,101074.03
2022-08-22T02:00:19.512Z,101072.31
2022-08-22T02:02:58.427Z,101074.94
2022-08-22T02:05:07.821Z,101066.09
2022-08-22T02:07:18.832Z,101071.34
2022-08-22T02:09:32.285Z,101075.78
2022-08-22T02:12:01.042Z,101070.53
2022-08-22T02:14:15.227Z,101068.75
2022-08-22T02:16:26.911Z,101069.66
2022-08-22T02:18:41.218Z,101075.78
2022-08-22T02:20:59.879Z,101063.41
2022-08-22T02:23:18.506Z,101069.53
2022-08-22T02:25:26.234Z,101063.38
2022-08-22T02:27:38.258Z,101044.91
2022-08-22T02:29:48.823Z,101062.53
2022-08-22T02:31:59.127Z,101059.03
2022-08-22T02:34:16.376Z,101040.53
2022-08-22T02:36:23.706Z,101056.41
2022-08-22T02:38:36.344Z,101051.97
2022-08-22T02:40:42.781Z,101046.69
2022-08-22T02:42:56.229Z,101045.94
2022-08-22T02:45:13.340Z,101045.94
2022-08-22T02:47:28.734Z,101048.59
2022-08-22T02:49:43.672Z,101053.91
2022-08-22T02:51:54.587Z,101048.56
2022-08-22T02:54:11.706Z,101043.28
2022-08-22T02:56:22.295Z,101045.06
2022-08-22T02:58:36.473Z,101036.25
2022-08-22T03:00:48.285Z,101044.16
2022-08-22T03:03:03.817Z,101038.00
2022-08-22T03:05:20.020Z,101031.88
2022-08-22T03:07:40.385Z,101037.13
2022-08-22T03:09:52.754Z,101043.28
2022-08-22T03:12:05.178Z,101036.19
2022-08-22T03:14:14.923Z,101034.44
2022-08-22T03:16:27.434Z,101034.41
2022-08-22T03:18:44.335Z,101037.91
2022-08-22T03:20:53.978Z,101031.75
2022-08-22T03:23:06.552Z,101033.50
2022-08-22T03:25:21.741Z,101033.53
2022-08-22T03:27:33.232Z,101035.28
2022-08-22T03:29:41.345Z,101036.13
2022-08-22T03:32:08.426Z,101038.75
2022-08-22T03:34:22.316Z,101033.44
2022-08-22T03:36:29.905Z,101026.56
2022-08-22T03:38:50.685Z,101029.19
2022-08-22T03:41:10.775Z,101025.69
2022-08-22T03:43:35.552Z,101035.41
2022-08-22T03:46:14.715Z,101023.94
2022-08-22T03:48:53.479Z,101024.81
2022-08-22T03:51:20.081Z,101009.88
2022-08-22T03:53:54.603Z,101021.28
2022-08-22T03:57:00.610Z,101025.69
2022-08-22T03:59:28.049Z,101019.56
2022-08-22T04:02:41.949Z,101016.94
2022-08-22T04:05:02.573Z,101019.56
2022-08-22T04:07:33.429Z,101023.06
2022-08-22T04:09:57.741Z,101024.81
2022-08-22T04:12:38.426Z,101034.53
2022-08-22T04:15:14.317Z,101023.97
2022-08-22T04:18:02.010Z,101023.97
2022-08-22T04:20:30.659Z,101030.13
2022-08-22T04:22:53.511Z,101023.97
2022-08-22T04:25:07.554Z,101020.44
2022-08-22T04:27:23.354Z,101019.53
2022-08-22T04:29:34.035Z,101019.56
2022-08-22T04:31:47.282Z,101033.66
2022-08-22T04:34:02.051Z,101026.63
2022-08-22T04:36:14.437Z,101020.44
2022-08-22T04:38:25.183Z,101010.75
2022-08-22T04:40:40.285Z,101012.50
2022-08-22T04:42:50.805Z,101020.44
2022-08-22T04:45:03.255Z,101020.44
2022-08-22T04:47:15.886Z,101023.06
2022-08-22T04:49:26.208Z,101022.19
2022-08-22T04:51:36.705Z,100992.25
2022-08-22T04:54:07.594Z,101025.72
2022-08-22T04:56:26.190Z,101033.66
2022-08-22T04:58:40.292Z,101030.13
2022-08-22T05:00:52.467Z,101029.25
2022-08-22T05:02:58.783Z,101020.44
2022-08-22T05:05:13.424Z,101033.66
2022-08-22T05:07:22.913Z,101032.75
2022-08-22T05:09:31.155Z,101037.16
2022-08-22T05:11:38.496Z,101043.31
2022-08-22T05:13:47.555Z,101039.75
2022-08-22T05:15:56.011Z,101045.94
2022-08-22T05:18:07.905Z,101041.53
2022-08-22T05:20:16.126Z,101040.63
2022-08-22T05:22:28.824Z,101045.06
2022-08-22T05:24:37.392Z,101037.09
2022-08-22T05:26:46.627Z,101038.03
2022-08-22T05:28:56.390Z,101043.34
2022-08-22T05:31:01.831Z,101035.41
2022-08-22T05:33:14.380Z,101045.06
2022-08-22T05:35:19.908Z,101042.38
2022-08-22T05:37:30.919Z,101045.03
2022-08-22T05:39:34.900Z,101046.78
2022-08-22T05:41:40.301Z,101049.44
2022-08-22T05:43:46.319Z,101048.56
2022-08-22T05:45:52.086Z,101051.25
2022-08-22T05:48:02.476Z,101052.13
2022-08-22T05:50:09.923Z,101056.53
2022-08-22T05:52:29.283Z,101048.56
2022-08-22T05:54:34.953Z,101055.59
2022-08-22T05:56:43.166Z,101055.59
2022-08-22T05:58:55.466Z,101055.50
2022-08-22T06:01:13.563Z,101055.34
2022-08-22T06:03:25.524Z,101058.75
2022-08-22T06:05:34.310Z,101052.50
2022-08-22T06:07:44.644Z,101060.47
2022-08-22T06:10:06.633Z,101060.44
2022-08-22T06:12:21.775Z,101064.78
2022-08-22T06:14:33.766Z,101062.03
2022-08-22T06:16:47.374Z,101060.34
2022-08-22T06:18:53.747Z,101067.53
2022-08-22T06:21:00.694Z,101069.44
2022-08-22T06:23:07.599Z,101076.50
2022-08-22T06:25:14.953Z,101073.66
2022-08-22T06:27:23.940Z,101085.84
2022-08-22T06:29:36.320Z,101086.63
2022-08-22T06:31:45.948Z,101082.94
2022-08-22T06:33:59.542Z,101081.91
2022-08-22T06:36:34.002Z,101080.22
2022-08-22T06:38:54.745Z,101083.03
2022-08-22T06:41:00.655Z,101082.03
2022-08-22T06:43:06.255Z,101081.16
2022-08-22T06:45:13.185Z,101077.66
2022-08-22T06:47:23.532Z,101074.22
2022-08-22T06:49:29.471Z,101077.75
2022-08-22T06:51:36.104Z,101078.53
2022-08-22T06:53:47.967Z,101080.31
2022-08-22T06:55:54.619Z,101085.63
2022-08-22T06:58:03.946Z,101079.38
2022-08-22T07:02:28.450Z,101072.13
2022-08-22T07:04:32.757Z,101077.38
2022-08-22T07:06:41.196Z,101066.53
2022-08-22T07:08:45.251Z,101066.47
2022-08-22T07:10:58.950Z,101065.44
2022-08-22T07:13:08.222Z,101066.22
2022-08-22T07:15:20.653Z,101065.28
2022-08-22T07:17:27.626Z,101038.13
2022-08-22T07:19:33.727Z,101065.50
2022-08-22T07:21:46.191Z,101065.44
2022-08-22T07:23:49.928Z,101062.97
2022-08-22T07:26:04.217Z,101056.81
2022-08-22T07:28:19.512Z,101065.50
2022-08-22T07:30:27.888Z,101067.28
2022-08-22T07:32:43.383Z,101069.94
2022-08-22T07:35:04.074Z,101064.63
2022-08-22T07:37:15.496Z,101070.66
2022-08-22T07:39:28.780Z,101067.00
2022-08-22T07:41:42.870Z,101066.03
2022-08-22T07:43:51.509Z,101071.16
2022-08-22T07:45:59.832Z,101074.75
2022-08-22T07:48:25.427Z,101072.00
2022-08-22T07:50:32.726Z,101069.34
2022-08-22T07:52:42.981Z,101079.00
2022-08-22T07:54:50.446Z,101074.50
2022-08-22T07:56:59.718Z,101072.81
2022-08-22T07:59:10.150Z,101084.09
2022-08-22T08:01:20.472Z,101083.22
2022-08-22T08:03:29.543Z,101078.69
2022-08-22T08:05:38.126Z,101076.81
2022-08-22T08:07:45.092Z,101077.44
2022-08-22T08:09:53.903Z,101051.81
2022-08-22T08:11:59.507Z,101071.78
2022-08-22T08:14:07.651Z,101067.44
2022-08-22T08:16:17.272Z,101061.31
2022-08-22T08:18:25.810Z,101056.00
2022-08-22T08:20:31.478Z,101060.38
2022-08-22T08:22:36.339Z,101055.00
2022-08-22T08:24:44.493Z,101053.13
2022-08-22T08:27:11.989Z,101052.16
2022-08-22T08:29:19.647Z,101053.00
2022-08-22T08:31:28.887Z,101041.25
2022-08-22T08:33:33.983Z,101028.00
2022-08-22T08:35:42.333Z,101040.13
2022-08-22T08:38:12.665Z,101033.88
2022-08-22T08:40:31.427Z,101037.41
2022-08-22T08:43:19.650Z,101032.75
2022-08-22T08:45:38.748Z,101033.69
2022-08-22T08:48:21.391Z,101029.94
2022-08-22T08:50:50.201Z,101032.31
2022-08-22T08:53:46.460Z,101029.63
2022-08-22T08:55:55.125Z,101028.72
2022-08-22T08:58:17.757Z,101019.81
2022-08-22T09:00:29.262Z,101022.25
2022-08-22T09:02:58.734Z,101020.06
2022-08-22T09:05:31.911Z,101016.25
2022-08-22T09:08:05.453Z,101016.13
2022-08-22T09:10:32.152Z,101004.19
2022-08-22T09:13:11.295Z,101012.44
2022-08-22T09:15:41.033Z,101014.78
2022-08-22T09:18:30.285Z,101015.84
2022-08-22T09:20:50.293Z,101012.22
2022-08-22T09:23:29.985Z,101013.59
2022-08-22T09:25:38.541Z,101011.09
2022-08-22T09:27:50.343Z,100984.34
2022-08-22T09:29:59.979Z,101003.13
2022-08-22T09:32:13.248Z,100998.81
2022-08-22T09:37:14.473Z,100919.94
2022-08-22T09:39:27.199Z,100982.75
2022-08-22T09:41:40.013Z,100991.47
2022-08-22T09:43:49.116Z,100984.19
2022-08-22T09:46:04.589Z,100984.78
2022-08-22T09:48:21.221Z,100977.34
2022-08-22T09:50:38.564Z,100970.16
2022-08-22T09:52:55.811Z,100977.16
2022-08-22T09:55:08.110Z,100975.41
2022-08-22T09:57:20.074Z,100976.06
2022-08-22T09:59:45.550Z,100976.66
2022-08-22T10:01:57.533Z,100982.50
2022-08-22T10:04:33.918Z,100981.59
2022-08-22T10:06:46.986Z,100982.78
2022-08-22T10:09:01.962Z,100975.16
2022-08-22T10:11:23.783Z,100984.34
2022-08-22T10:13:38.402Z,100956.78
2022-08-22T10:15:47.694Z,100981.06
2022-08-22T10:18:06.169Z,100963.66
2022-08-22T10:20:23.136Z,100957.03
2022-08-22T10:22:37.223Z,100945.16
2022-08-22T10:24:53.089Z,100965.91
2022-08-22T10:27:07.901Z,100951.50
2022-08-22T10:29:40.974Z,100961.91
2022-08-22T10:31:58.865Z,100955.72
2022-08-22T10:34:10.665Z,100956.41
2022-08-22T10:36:20.699Z,100945.28
2022-08-22T10:38:28.973Z,100955.50
2022-08-22T10:40:38.288Z,100960.19
2022-08-22T10:42:51.530Z,100955.03
2022-08-22T10:45:35.092Z,100951.88
2022-08-22T10:47:46.972Z,100948.59
2022-08-22T10:49:53.392Z,100954.00
2022-08-22T10:52:14.807Z,100952.84
2022-08-22T10:54:39.834Z,100946.19
2022-08-22T10:56:49.719Z,100946.84
2022-08-22T10:59:05.836Z,100954.31
2022-08-22T11:01:41.052Z,100952.06
2022-08-22T11:03:43.490Z,100944.69
2022-08-22T11:05:50.626Z,100947.03
2022-08-22T11:08:06.308Z,100940.38
2022-08-22T11:10:22.412Z,100938.69
2022-08-22T11:12:35.328Z,100936.53
2022-08-22T11:15:34.671Z,100937.00
2022-08-22T11:18:13.011Z,100938.16
2022-08-22T11:20:22.264Z,100937.22
2022-08-22T11:22:32.531Z,100934.06
2022-08-22T11:25:29.255Z,100928.94
2022-08-22T11:27:48.897Z,100929.09
2022-08-22T11:30:03.012Z,100933.31
2022-08-22T11:32:15.095Z,100930.72
2022-08-22T11:34:39.888Z,100931.59
2022-08-22T11:36:51.994Z,100925.97
2022-08-22T11:39:07.910Z,100912.28
2022-08-22T11:41:25.568Z,100924.56
2022-08-22T11:43:49.952Z,100912.75
2022-08-22T11:45:59.309Z,100918.75
2022-08-22T11:48:16.518Z,100911.06
2022-08-22T11:50:28.181Z,100914.09
2022-08-22T11:53:04.459Z,100911.22
2022-08-22T11:55:33.053Z,100916.03
2022-08-22T11:57:44.299Z,100906.25
2022-08-22T12:00:05.263Z,100908.41
2022-08-22T12:02:19.493Z,100907.91
2022-08-22T12:04:33.506Z,100907.78
2022-08-22T12:07:02.542Z,100910.56
2022-08-22T12:09:21.660Z,100911.22
2022-08-22T12:11:33.545Z,100907.13
2022-08-22T12:13:49.197Z,100909.47
2022-08-22T12:16:04.338Z,100904.75
2022-08-22T12:18:43.883Z,100909.00
2022-08-22T12:21:22.413Z,100898.56
2022-08-22T12:23:56.618Z,100898.22
2022-08-22T12:26:13.392Z,100899.38
2022-08-22T12:28:30.575Z,100903.13
2022-08-22T12:30:42.023Z,100896.56
2022-08-22T12:33:36.090Z,100890.81
2022-08-22T12:35:52.418Z,100893.69
2022-08-22T12:38:28.469Z,100885.81
2022-08-22T12:40:43.855Z,100894.25
2022-08-22T12:43:03.034Z,100888.28
2022-08-22T12:45:30.857Z,100883.13
2022-08-22T12:47:45.069Z,100889.91
2022-08-22T12:50:06.506Z,100879.50
2022-08-22T12:52:25.080Z,100876.75
2022-08-22T12:54:47.468Z,100868.66
2022-08-22T12:57:00.387Z,100883.47
2022-08-22T12:59:25.791Z,100879.09
2022-08-22T13:01:37.033Z,100879.53
2022-08-22T13:03:47.998Z,100866.13
2022-08-22T13:05:56.871Z,100878.38
2022-08-22T13:08:08.108Z,100872.63
2022-08-22T13:10:36.731Z,100869.41
2022-08-22T13:12:47.381Z,100872.47
2022-08-22T13:14:55.664Z,100869.94
2022-08-22T13:17:10.280Z,100871.59
2022-08-22T13:19:32.058Z,100871.25
2022-08-22T13:21:44.451Z,100873.84
2022-08-22T13:23:54.073Z,100863.47
2022-08-22T13:26:07.947Z,100855.00
2022-08-22T13:28:14.030Z,100865.00
2022-08-22T13:30:21.945Z,100857.75
2022-08-22T13:32:32.634Z,100863.69
2022-08-22T13:34:43.666Z,100860.25
2022-08-22T13:36:51.982Z,100864.00
2022-08-22T13:39:04.407Z,100861.38
2022-08-22T13:41:11.818Z,100851.47
2022-08-22T13:43:21.293Z,100855.22
2022-08-22T13:45:27.019Z,100854.66
2022-08-22T13:47:34.444Z,100851.47
2022-08-22T13:49:42.213Z,100847.72
2022-08-22T13:51:50.887Z,100842.72
2022-08-22T13:54:11.027Z,100853.91
2022-08-22T13:56:23.132Z,100850.13
2022-08-22T13:58:37.454Z,100847.25
2022-08-22T14:01:17.515Z,100842.84
2022-08-22T14:03:27.142Z,100841.72
2022-08-22T14:05:35.232Z,100845.25
2022-08-22T14:07:46.198Z,100845.09
2022-08-22T14:09:56.976Z,100836.44
2022-08-22T14:12:12.137Z,100838.56
2022-08-22T14:14:24.167Z,100824.44
2022-08-22T14:16:34.763Z,100834.50
2022-08-22T14:18:45.416Z,100832.41
2022-08-22T14:20:50.350Z,100839.19
2022-08-22T14:23:03.474Z,100838.00
2022-08-22T14:25:18.104Z,100831.75
2022-08-22T14:27:32.448Z,100832.31
2022-08-22T14:29:42.816Z,100839.72
2022-08-22T14:31:57.131Z,100837.81
2022-08-22T14:34:07.455Z,100835.63
2022-08-22T14:36:17.239Z,100839.06
2022-08-22T14:38:29.905Z,100831.84
2022-08-22T14:40:37.382Z,100836.50
2022-08-22T14:42:51.196Z,100826.53
2022-08-22T14:45:06.626Z,100830.59
2022-08-22T14:47:54.112Z,100803.97
2022-08-22T14:49:52.591Z,100816.78
2022-08-22T14:52:02.866Z,100814.81
2022-08-22T14:54:14.044Z,100810.91
2022-08-22T14:56:28.812Z,100811.22
2022-08-22T14:58:37.475Z,100799.34
2022-08-22T15:00:45.146Z,100804.31
2022-08-22T15:02:48.668Z,100806.47
2022-08-22T15:04:54.957Z,100807.34
2022-08-22T15:06:59.935Z,100808.16
2022-08-22T15:09:08.163Z,100798.41
2022-08-22T15:11:21.689Z,100796.44
2022-08-22T15:13:26.274Z,100798.19
2022-08-22T15:15:41.133Z,100796.44
2022-08-22T15:17:57.797Z,100799.06
2022-08-22T15:20:11.880Z,100789.97
2022-08-22T15:22:21.346Z,100784.53
2022-08-22T15:24:29.817Z,100788.53
2022-08-22T15:26:38.535Z,100781.94
2022-08-22T15:28:52.680Z,100781.97
2022-08-22T15:31:05.612Z,100781.47
2022-08-22T15:33:13.872Z,100786.13
2022-08-22T15:35:30.110Z,100777.72
2022-08-22T15:37:36.796Z,100778.50
2022-08-22T15:39:59.850Z,100774.66
2022-08-22T15:42:06.797Z,100775.19
2022-08-22T15:44:30.618Z,100771.53
2022-08-22T15:46:40.294Z,100772.13
2022-08-22T15:48:54.462Z,100773.78
2022-08-22T15:51:02.501Z,100767.72
2022-08-22T15:53:21.035Z,100764.78
2022-08-22T15:55:27.945Z,100772.19
2022-08-22T15:57:35.922Z,100775.19
2022-08-22T15:59:47.747Z,100770.38
2022-08-22T16:02:00.467Z,100776.16
2022-08-22T16:04:15.236Z,100760.72
2022-08-22T16:06:42.836Z,100774.03
2022-08-22T16:08:50.078Z,100775.25
2022-08-22T16:11:14.849Z,100778.81
2022-08-22T16:13:41.563Z,100780.78
2022-08-22T16:16:01.288Z,100785.28
2022-08-22T16:18:06.811Z,100775.63
2022-08-22T16:20:43.991Z,100783.69
2022-08-22T16:23:09.574Z,100770.59
2022-08-22T16:25:14.285Z,100778.88
2022-08-22T16:27:23.330Z,100769.97
2022-08-22T16:29:37.679Z,100766.31
2022-08-22T16:32:03.458Z,100769.00
2022-08-22T16:34:26.407Z,100757.91
2022-08-22T16:36:49.156Z,100773.91
2022-08-22T16:38:56.603Z,100767.78
2022-08-22T16:41:00.433Z,100770.44
2022-08-22T16:43:13.705Z,100777.53
2022-08-22T16:45:20.060Z,100766.97
2022-08-22T16:47:40.595Z,100771.59
2022-08-22T16:50:23.986Z,100772.22
2022-08-22T16:53:04.120Z,100764.44
2022-08-22T16:55:42.127Z,100770.44
2022-08-22T16:58:06.147Z,100766.97
2022-08-22T17:00:33.898Z,100767.84
2022-08-22T17:02:57.998Z,100764.25
2022-08-22T17:05:18.435Z,100752.81
2022-08-22T17:07:31.015Z,100754.72
2022-08-22T17:09:49.528Z,100758.94
2022-08-22T17:12:04.775Z,100757.13
2022-08-22T17:14:24.191Z,100756.47
2022-08-22T17:16:44.195Z,100755.47
2022-08-22T17:19:03.331Z,100758.03
2022-08-22T17:21:14.186Z,100755.41
2022-08-22T17:23:26.661Z,100750.47
2022-08-22T17:25:36.515Z,100753.09
2022-08-22T17:27:42.402Z,100745.63
2022-08-22T17:30:00.309Z,100744.50
2022-08-22T17:32:13.918Z,100744.50
2022-08-22T17:34:33.824Z,100752.66
2022-08-22T17:36:53.076Z,100748.88
2022-08-22T17:39:10.125Z,100752.06
2022-08-22T17:41:28.042Z,100749.81
2022-08-22T17:43:48.901Z,100752.06
2022-08-22T17:46:13.305Z,100758.06
2022-08-22T17:48:20.795Z,100760.34
2022-08-22T17:50:32.404Z,100754.50
2022-08-22T17:52:46.227Z,100753.38
2022-08-22T17:54:53.559Z,100756.19
2022-08-22T17:57:05.716Z,100761.09
2022-08-22T17:59:16.936Z,100755.22
2022-08-22T18:01:40.445Z,100757.22
2022-08-22T18:03:51.834Z,100742.00
2022-08-22T18:06:04.588Z,100769.34
2022-08-22T18:08:37.384Z,100774.06
2022-08-22T18:10:46.628Z,100776.13
2022-08-22T18:12:57.991Z,100774.59
2022-08-22T18:15:07.608Z,100780.16
2022-08-22T18:17:20.541Z,100780.44
2022-08-22T18:19:40.958Z,100779.75
2022-08-22T18:21:52.587Z,100771.09
2022-08-22T18:24:00.021Z,100782.06
2022-08-22T18:26:09.549Z,100786.53
2022-08-22T18:28:23.021Z,100783.88
2022-08-22T18:30:30.675Z,100778.72
2022-08-22T18:32:39.680Z,100784.16
2022-08-22T18:34:49.931Z,100783.44
2022-08-22T18:36:59.547Z,100782.78
2022-08-22T18:39:07.944Z,100790.06
2022-08-22T18:41:17.005Z,100769.97
2022-08-22T18:43:24.111Z,100781.50
2022-08-22T18:46:00.154Z,100787.75
2022-08-22T18:48:07.825Z,100791.38
2022-08-22T18:50:30.684Z,100790.72
2022-08-22T18:52:41.278Z,100798.09
2022-08-22T18:55:00.130Z,100802.78
2022-08-22T18:57:24.520Z,100801.94
2022-08-22T18:59:42.344Z,100802.97
2022-08-22T19:01:57.351Z,100795.94
2022-08-22T19:04:26.872Z,100802.38
2022-08-22T19:06:56.075Z,100799.78
2022-08-22T19:09:35.071Z,100804.31
2022-08-22T19:11:52.545Z,100806.19
2022-08-22T19:14:18.546Z,100807.06
2022-08-22T19:16:54.916Z,100808.91
2022-08-22T19:19:02.377Z,100814.38
2022-08-22T19:21:42.149Z,100816.28
2022-08-22T19:23:51.169Z,100795.50
2022-08-22T19:26:30.094Z,100821.91
2022-08-22T19:28:38.184Z,100819.47
2022-08-22T19:30:45.380Z,100815.03
2022-08-22T19:33:03.825Z,100821.38
2022-08-22T19:35:20.172Z,100815.25
2022-08-22T19:37:33.721Z,100827.09
2022-08-22T19:39:54.438Z,100824.56
2022-08-22T19:41:59.568Z,100826.44
2022-08-22T19:44:04.938Z,100822.22
2022-08-22T19:46:11.973Z,100828.50
2022-08-22T19:48:17.223Z,100828.63
2022-08-22T19:50:30.181Z,100824.13
2022-08-22T19:52:52.200Z,100820.75
2022-08-22T19:55:04.410Z,100825.09
2022-08-22T19:57:16.059Z,100812.75
2022-08-22T19:59:31.460Z,100824.06
2022-08-22T20:01:46.940Z,100826.88
2022-08-22T20:03:56.863Z,100822.75
2022-08-22T20:06:21.953Z,100824.63
2022-08-22T20:08:49.179Z,100828.91
2022-08-22T20:11:10.837Z,100825.47
2022-08-22T20:13:22.005Z,100827.22
2022-08-22T20:15:29.314Z,100820.19
2022-08-22T20:17:43.747Z,100826.44
2022-08-22T20:22:19.819Z,100827.84
2022-08-22T20:24:39.774Z,100831.44
2022-08-22T20:27:12.099Z,100823.81
2022-08-22T20:29:11.905Z,100837.69
2022-08-22T20:31:23.162Z,100835.69
2022-08-22T20:33:33.630Z,100828.66
2022-08-22T20:35:42.931Z,100830.47
2022-08-22T20:38:06.273Z,100833.94
2022-08-22T20:40:53.584Z,100827.88
2022-08-22T20:42:51.529Z,100826.19
2022-08-22T20:44:56.590Z,100827.06
2022-08-22T20:47:07.211Z,100829.78
2022-08-22T20:49:19.413Z,100826.50
2022-08-22T20:51:26.143Z,100821.34
2022-08-22T20:53:29.654Z,100823.03
2022-08-22T20:55:33.140Z,100822.09
2022-08-22T20:57:46.271Z,100818.50
2022-08-22T20:59:53.155Z,100825.81
2022-08-22T21:02:10.238Z,100820.47
2022-08-22T21:04:15.773Z,100803.78
2022-08-22T21:06:23.566Z,100822.56
2022-08-22T21:08:28.801Z,100820.97
2022-08-22T21:10:51.636Z,100805.34
2022-08-22T21:13:10.867Z,100816.53
2022-08-22T21:15:14.346Z,100813.06
2022-08-22T21:17:21.597Z,100815.06
2022-08-22T21:19:29.194Z,100821.34
2022-08-22T21:21:34.826Z,100822.25
2022-08-22T21:23:41.132Z,100824.97
2022-08-22T21:25:54.227Z,100829.19
2022-08-22T21:28:01.150Z,100820.28
2022-08-22T21:30:08.817Z,100823.94
2022-08-22T21:32:24.555Z,100823.06
2022-08-22T21:34:31.933Z,100825.88
2022-08-22T21:36:39.164Z,100823.25
2022-08-22T21:38:48.710Z,100830.53
2022-08-22T21:40:53.184Z,100827.03
2022-08-22T21:43:03.591Z,100821.84
2022-08-22T21:45:09.810Z,100827.34
2022-08-22T21:47:30.417Z,100803.78
2022-08-22T21:49:36.284Z,100829.50
2022-08-22T21:51:42.547Z,100808.34
2022-08-22T21:53:46.022Z,100783.88
2022-08-22T21:56:13.738Z,100824.34
2022-08-22T21:58:36.166Z,100835.19
2022-08-22T22:00:48.897Z,100827.25
2022-08-22T22:02:59.976Z,100833.50
2022-08-22T22:05:11.533Z,100826.44
2022-08-22T22:07:15.178Z,100827.38
2022-08-22T22:09:19.257Z,100825.91
2022-08-22T22:11:22.688Z,100793.47
2022-08-22T22:13:28.496Z,100806.66
2022-08-22T22:15:37.791Z,100818.91
2022-08-22T22:17:41.610Z,100818.13
2022-08-22T22:19:45.088Z,100831.34
2022-08-22T22:21:50.008Z,100811.09
2022-08-22T22:23:53.686Z,100820.78
2022-08-22T22:26:04.570Z,100812.88
2022-08-22T22:28:11.053Z,100818.13
2022-08-22T22:30:17.177Z,100822.66
2022-08-22T22:32:21.052Z,100825.47
2022-08-22T22:34:25.791Z,100821.13
2022-08-22T22:36:29.599Z,100821.13
2022-08-22T22:38:34.645Z,100819.50
2022-08-22T22:40:38.124Z,100832.03
2022-08-22T22:42:42.741Z,100827.75
2022-08-22T22:44:47.564Z,100828.72
2022-08-22T22:46:51.099Z,100826.84
2022-08-22T22:48:54.789Z,100832.22
2022-08-22T22:50:58.243Z,100836.91
2022-08-22T22:53:01.668Z,100829.94
2022-08-22T22:55:07.973Z,100832.66
2022-08-22T22:57:12.394Z,100840.72
2022-08-22T22:59:17.240Z,100838.97
2022-08-22T23:01:23.504Z,100840.88
2022-08-22T23:03:27.374Z,100846.53
2022-08-22T23:05:31.678Z,100844.25
2022-08-22T23:07:35.321Z,100850.31
2022-08-22T23:09:44.883Z,100845.66
2022-08-22T23:11:49.983Z,100839.38
2022-08-22T23:13:53.884Z,100837.69
2022-08-22T23:15:57.303Z,100840.16
2022-08-22T23:18:01.070Z,100841.19
2022-08-22T23:20:06.467Z,100837.75
2022-08-22T23:22:10.430Z,100824.59
2022-08-22T23:24:15.377Z,100843.06
2022-08-22T23:26:18.934Z,100840.53
2022-08-22T23:28:23.755Z,100841.44
2022-08-22T23:30:27.323Z,100837.91
2022-08-22T23:32:30.776Z,100832.94
2022-08-22T23:34:36.520Z,100847.28
2022-08-22T23:36:40.949Z,100840.25
2022-08-22T23:38:44.974Z,100844.00
2022-08-22T23:40:48.360Z,100846.78
2022-08-22T23:42:51.808Z,100846.09
2022-08-22T23:44:56.857Z,100851.22
2022-08-22T23:47:01.613Z,100855.69
2022-08-22T23:49:06.322Z,100856.75
2022-08-22T23:51:11.625Z,100845.44
2022-08-22T23:53:15.103Z,100820.81
2022-08-22T23:55:19.298Z,100857.63
2022-08-22T23:57:26.527Z,100854.34
2022-08-22T23:59:34.110Z,100849.22
